createdAt,value
2022-11-26T00:01:14.765Z,10.18
2022-11-26T00:03:44.585Z,9.68
2022-11-26T00:06:23.581Z,9.20
2022-11-26T00:08:50.484Z,12.15
2022-11-26T00:11:17.285Z,10.00
2022-11-26T00:13:43.937Z,9.18
2022-11-26T00:16:12.883Z,14.80
2022-11-26T00:18:39.819Z,9.30
2022-11-26T00:21:06.587Z,9.30
2022-11-26T00:23:33.174Z,12.73
2022-11-26T00:26:01.292Z,10.00
2022-11-26T00:28:31.313Z,9.40
2022-11-26T00:30:59.795Z,6.88
2022-11-26T00:33:27.332Z,10.98
2022-11-26T00:35:56.713Z,7.72
2022-11-26T00:38:23.575Z,9.48
2022-11-26T00:40:50.184Z,6.97
2022-11-26T00:43:17.412Z,8.88
2022-11-26T00:45:44.299Z,6.90
2022-11-26T00:48:11.223Z,10.18
2022-11-26T00:50:40.700Z,9.20
2022-11-26T00:53:08.271Z,7.78
2022-11-26T00:55:39.366Z,9.25
2022-11-26T00:58:06.388Z,9.93
2022-11-26T01:00:34.172Z,8.02
2022-11-26T01:03:01.323Z,14.65
2022-11-26T01:05:30.598Z,7.60
2022-11-26T01:08:00.295Z,8.57
2022-11-26T01:10:28.365Z,7.93
2022-11-26T01:12:55.173Z,13.20
2022-11-26T01:15:23.004Z,8.93
2022-11-26T01:17:49.873Z,8.23
2022-11-26T01:20:26.222Z,12.43
2022-11-26T01:22:53.336Z,10.93
2022-11-26T01:25:20.348Z,7.32
2022-11-26T01:27:47.045Z,10.95
2022-11-26T01:30:20.573Z,7.68
2022-11-26T01:32:48.515Z,7.05
2022-11-26T01:35:22.040Z,13.52
2022-11-26T01:38:00.660Z,8.27
2022-11-26T01:43:28.000Z,9.55
2022-11-26T01:45:57.100Z,7.78
2022-11-26T01:48:27.109Z,8.13
2022-11-26T01:51:13.859Z,7.75
2022-11-26T01:53:54.889Z,9.27
2022-11-26T02:01:41.831Z,8.18
2022-11-26T02:04:13.693Z,15.35
2022-11-26T02:06:40.766Z,7.10
2022-11-26T02:09:08.837Z,8.63
2022-11-26T02:11:35.800Z,11.30
2022-11-26T02:14:11.944Z,11.38
2022-11-26T02:17:11.078Z,9.45
2022-11-26T02:20:12.545Z,8.57
2022-11-26T02:23:05.186Z,7.57
2022-11-26T02:26:01.566Z,6.80
2022-11-26T02:28:39.087Z,5.47
2022-11-26T02:31:24.892Z,7.50
2022-11-26T02:33:56.939Z,7.35
2022-11-26T02:36:48.515Z,8.27
2022-11-26T02:39:17.129Z,12.75
2022-11-26T02:41:46.979Z,8.20
2022-11-26T02:44:14.981Z,6.82
2022-11-26T02:46:41.881Z,6.50
2022-11-26T02:49:09.846Z,7.50
2022-11-26T02:51:36.500Z,6.32
2022-11-26T02:54:03.450Z,5.82
2022-11-26T02:56:31.181Z,9.25
2022-11-26T02:58:58.078Z,9.65
2022-11-26T03:01:29.457Z,8.90
2022-11-26T03:04:00.924Z,7.05
2022-11-26T03:06:29.614Z,8.73
2022-11-26T03:08:56.454Z,9.50
2022-11-26T03:11:23.126Z,8.80
2022-11-26T03:13:52.906Z,5.40
2022-11-26T03:16:19.794Z,11.00
2022-11-26T03:18:46.516Z,10.52
2022-11-26T03:21:13.116Z,6.63
2022-11-26T03:23:39.718Z,4.93
2022-11-26T03:26:06.333Z,4.85
2022-11-26T03:28:32.922Z,7.72
2022-11-26T03:30:59.530Z,5.47
2022-11-26T03:33:26.166Z,9.48
2022-11-26T03:35:52.775Z,5.82
2022-11-26T03:38:20.135Z,5.57
2022-11-26T03:40:55.142Z,9.90
2022-11-26T03:43:21.771Z,6.78
2022-11-26T03:45:58.048Z,9.07
2022-11-26T03:48:24.889Z,7.43
2022-11-26T03:50:51.524Z,9.63
2022-11-26T03:53:18.411Z,5.53
2022-11-26T03:55:45.163Z,9.15
2022-11-26T03:58:12.102Z,12.85
2022-11-26T04:00:38.698Z,13.27
2022-11-26T04:03:05.598Z,7.20
2022-11-26T04:05:32.342Z,11.13
2022-11-26T04:07:58.920Z,13.27
2022-11-26T04:10:25.584Z,8.75
2022-11-26T04:12:52.242Z,15.05
2022-11-26T04:15:18.819Z,11.25
2022-11-26T04:17:45.397Z,11.68
2022-11-26T04:20:12.735Z,11.65
2022-11-26T04:22:39.390Z,8.82
2022-11-26T04:25:06.306Z,12.45
2022-11-26T04:27:33.586Z,9.55
2022-11-26T04:30:00.179Z,8.13
2022-11-26T04:32:26.841Z,6.80
2022-11-26T04:34:53.459Z,9.40
2022-11-26T04:37:20.370Z,12.82
2022-11-26T04:39:46.959Z,6.53
2022-11-26T04:42:13.554Z,6.03
2022-11-26T04:44:40.263Z,5.75
2022-11-26T04:47:07.085Z,6.57
2022-11-26T04:49:33.723Z,15.68
2022-11-26T04:52:10.830Z,13.45
2022-11-26T04:54:37.784Z,8.10
2022-11-26T04:57:05.119Z,8.90
2022-11-26T04:59:31.794Z,7.75
2022-11-26T05:01:59.510Z,9.13
2022-11-26T05:04:27.660Z,8.55
2022-11-26T05:06:54.637Z,12.15
2022-11-26T05:09:21.544Z,12.63
2022-11-26T05:11:48.121Z,12.10
2022-11-26T05:14:14.717Z,15.23
2022-11-26T05:16:41.421Z,10.88
2022-11-26T05:19:08.023Z,13.10
2022-11-26T05:21:34.604Z,7.75
2022-11-26T05:24:01.337Z,6.80
2022-11-26T05:26:28.037Z,11.43
2022-11-26T05:28:54.984Z,14.00
2022-11-26T05:31:21.661Z,10.43
2022-11-26T05:33:51.173Z,11.60
2022-11-26T05:36:17.985Z,9.55
2022-11-26T05:38:44.693Z,15.43
2022-11-26T05:41:11.264Z,14.77
2022-11-26T05:43:37.801Z,11.60
2022-11-26T05:46:05.908Z,9.63
2022-11-26T05:48:32.796Z,8.07
2022-11-26T05:51:00.204Z,14.45
2022-11-26T05:53:27.281Z,11.50
2022-11-26T05:55:54.413Z,12.85
2022-11-26T05:58:20.996Z,8.93
2022-11-26T06:00:47.835Z,11.98
2022-11-26T06:03:19.863Z,10.55
2022-11-26T06:05:47.170Z,10.82
2022-11-26T06:08:13.960Z,15.13
2022-11-26T06:10:42.611Z,10.55
2022-11-26T06:13:09.253Z,10.45
2022-11-26T06:15:35.913Z,10.65
2022-11-26T06:18:02.555Z,16.17
2022-11-26T06:20:29.180Z,14.20
2022-11-26T06:22:55.785Z,12.88
2022-11-26T06:25:22.432Z,12.45
2022-11-26T06:27:49.086Z,7.38
2022-11-26T06:30:15.697Z,11.73
2022-11-26T06:32:48.160Z,12.95
2022-11-26T06:35:14.889Z,8.73
2022-11-26T06:37:41.547Z,11.23
2022-11-26T06:40:09.146Z,8.65
2022-11-26T06:42:35.741Z,7.43
2022-11-26T06:45:02.339Z,9.55
2022-11-26T06:47:28.962Z,8.45
2022-11-26T06:49:55.585Z,12.40
2022-11-26T06:52:22.173Z,9.15
2022-11-26T06:54:50.160Z,8.00
2022-11-26T06:57:16.916Z,19.52
2022-11-26T06:59:43.494Z,11.15
2022-11-26T07:02:10.494Z,10.95
2022-11-26T07:04:37.397Z,7.63
2022-11-26T07:07:04.353Z,8.90
2022-11-26T07:09:31.098Z,11.30
2022-11-26T07:11:58.829Z,8.40
2022-11-26T07:14:25.471Z,7.28
2022-11-26T07:16:52.044Z,6.35
2022-11-26T07:19:18.645Z,10.82
2022-11-26T07:21:45.276Z,5.55
2022-11-26T07:24:11.880Z,10.88
2022-11-26T07:26:38.474Z,6.10
2022-11-26T07:29:05.093Z,8.82
2022-11-26T07:31:31.750Z,8.60
2022-11-26T07:33:58.377Z,4.85
2022-11-26T07:36:26.427Z,4.75
2022-11-26T07:38:55.296Z,6.75
2022-11-26T07:41:22.003Z,4.30
2022-11-26T07:43:48.672Z,3.85
2022-11-26T07:46:16.996Z,3.70
2022-11-26T07:48:43.716Z,8.02
2022-11-26T07:51:27.582Z,5.10
2022-11-26T07:53:55.735Z,5.20
2022-11-26T07:56:22.407Z,3.65
2022-11-26T07:58:49.059Z,5.22
2022-11-26T08:01:17.455Z,8.95
2022-11-26T08:03:46.156Z,2.40
2022-11-26T08:06:14.415Z,3.55
2022-11-26T08:08:41.104Z,6.20
2022-11-26T08:11:24.258Z,2.40
2022-11-26T08:13:54.126Z,5.93
2022-11-26T08:16:20.987Z,3.95
2022-11-26T08:18:47.621Z,3.40
2022-11-26T08:21:14.262Z,4.13
2022-11-26T08:23:40.873Z,5.43
2022-11-26T08:26:30.975Z,4.70
2022-11-26T08:28:55.318Z,6.03
2022-11-26T08:31:22.309Z,3.75
2022-11-26T08:33:49.001Z,3.22
2022-11-26T08:36:15.622Z,3.67
2022-11-26T08:38:42.268Z,5.95
2022-11-26T08:41:10.811Z,4.25
2022-11-26T08:44:08.405Z,4.13
2022-11-26T08:46:25.878Z,6.47
2022-11-26T08:48:54.681Z,5.85
2022-11-26T08:51:21.435Z,5.63
2022-11-26T08:53:47.998Z,4.30
2022-11-26T08:56:14.615Z,11.30
2022-11-26T08:58:42.933Z,6.22
2022-11-26T09:01:16.180Z,4.45
2022-11-26T09:03:43.169Z,3.85
2022-11-26T09:06:10.217Z,5.80
2022-11-26T09:08:56.847Z,4.50
2022-11-26T09:11:24.289Z,4.22
2022-11-26T09:13:50.922Z,6.03
2022-11-26T09:16:17.629Z,5.50
2022-11-26T09:18:44.274Z,5.88
2022-11-26T09:21:10.908Z,6.85
2022-11-26T09:23:37.620Z,5.15
2022-11-26T09:26:04.251Z,7.10
2022-11-26T09:28:30.832Z,8.65
2022-11-26T09:30:58.484Z,12.18
2022-11-26T09:33:25.230Z,7.32
2022-11-26T09:35:51.864Z,5.47
2022-11-26T09:38:18.642Z,5.57
2022-11-26T09:40:57.650Z,4.65
2022-11-26T09:44:04.154Z,6.93
2022-11-26T09:47:12.469Z,9.43
2022-11-26T09:49:46.594Z,6.70
2022-11-26T09:52:13.689Z,7.80
2022-11-26T09:54:40.749Z,9.85
2022-11-26T09:57:47.342Z,7.55
2022-11-26T10:00:33.083Z,9.45
2022-11-26T10:02:59.732Z,5.30
2022-11-26T10:05:37.457Z,6.95
2022-11-26T10:08:19.237Z,8.68
2022-11-26T10:10:52.102Z,12.68
2022-11-26T10:13:31.473Z,7.60
2022-11-26T10:16:07.011Z,7.47
2022-11-26T10:18:43.991Z,7.75
2022-11-26T10:21:37.730Z,7.80
2022-11-26T10:24:18.906Z,10.13
2022-11-26T10:26:45.558Z,7.93
2022-11-26T10:29:24.686Z,6.72
2022-11-26T10:31:54.945Z,5.95
2022-11-26T10:34:29.845Z,7.25
2022-11-26T10:36:57.952Z,10.35
2022-11-26T10:39:24.563Z,12.15
2022-11-26T10:41:51.867Z,7.00
2022-11-26T10:44:40.779Z,7.85
2022-11-26T10:47:26.527Z,9.45
2022-11-26T10:49:55.181Z,12.40
2022-11-26T10:52:26.610Z,7.07
2022-11-26T10:55:15.669Z,7.88
2022-11-26T10:57:43.773Z,10.15
2022-11-26T11:00:30.825Z,15.52
2022-11-26T11:02:57.644Z,12.63
2022-11-26T11:05:24.371Z,19.10
2022-11-26T11:07:53.857Z,15.63
2022-11-26T11:10:22.346Z,11.75
2022-11-26T11:13:10.864Z,15.63
2022-11-26T11:15:38.740Z,17.42
2022-11-26T11:18:07.023Z,21.52
2022-11-26T11:20:37.322Z,11.10
2022-11-26T11:23:19.018Z,11.15
2022-11-26T11:25:55.994Z,14.50
2022-11-26T11:28:22.706Z,13.43
2022-11-26T11:31:13.277Z,17.92
2022-11-26T11:33:40.047Z,11.23
2022-11-26T11:38:56.787Z,13.88
2022-11-26T11:41:44.478Z,15.30
2022-11-26T11:44:18.282Z,10.13
2022-11-26T11:47:05.952Z,16.25
2022-11-26T11:50:12.367Z,17.65
2022-11-26T11:53:01.943Z,14.55
2022-11-26T11:56:05.097Z,14.48
2022-11-26T11:59:09.460Z,16.75
2022-11-26T12:02:01.576Z,15.25
2022-11-26T12:07:38.678Z,13.57
2022-11-26T12:10:33.917Z,11.55
2022-11-26T12:13:02.025Z,14.85
2022-11-26T12:15:30.855Z,14.23
2022-11-26T12:18:04.139Z,11.65
2022-11-26T12:20:34.935Z,15.63
2022-11-26T12:23:36.548Z,12.30
2022-11-26T12:29:06.578Z,13.35
2022-11-26T12:31:57.287Z,12.82
2022-11-26T12:34:43.879Z,15.45
2022-11-26T12:37:16.281Z,12.73
2022-11-26T12:40:05.279Z,12.10
2022-11-26T12:42:41.912Z,10.45
2022-11-26T12:45:20.979Z,15.70
2022-11-26T12:47:59.131Z,13.82
2022-11-26T12:50:35.182Z,11.60
2022-11-26T12:53:41.887Z,10.35
2022-11-26T12:56:21.476Z,12.57
2022-11-26T12:59:12.578Z,13.00
2022-11-26T13:01:39.406Z,18.65
2022-11-26T13:04:36.188Z,18.00
2022-11-26T13:07:08.131Z,14.77
2022-11-26T13:09:47.303Z,10.43
2022-11-26T13:12:18.562Z,12.20
2022-11-26T13:14:49.617Z,12.52
2022-11-26T13:17:18.470Z,14.35
2022-11-26T13:20:06.923Z,15.73
2022-11-26T13:22:46.374Z,18.60
2022-11-26T13:25:52.856Z,10.10
2022-11-26T13:28:52.454Z,11.38
2022-11-26T13:31:51.472Z,8.73
2022-11-26T13:34:29.719Z,12.57
2022-11-26T13:40:29.360Z,11.80
2022-11-26T13:43:35.793Z,11.25
2022-11-26T13:46:25.045Z,15.23
2022-11-26T13:49:06.744Z,14.32
2022-11-26T13:51:50.752Z,12.20
2022-11-26T13:54:24.251Z,12.68
2022-11-26T13:56:50.893Z,9.38
2022-11-26T13:59:28.038Z,17.00
2022-11-26T14:01:55.292Z,9.95
2022-11-26T14:12:21.613Z,8.40
2022-11-26T14:14:49.225Z,11.07
2022-11-26T14:17:20.749Z,6.75
2022-11-26T14:19:58.455Z,11.00
2022-11-26T14:22:29.285Z,14.65
2022-11-26T14:24:58.851Z,8.88
2022-11-26T14:27:28.367Z,8.65
2022-11-26T14:30:18.161Z,14.52
2022-11-26T14:32:53.350Z,10.25
2022-11-26T14:35:39.170Z,10.10
2022-11-26T14:38:07.438Z,13.65
2022-11-26T14:40:35.829Z,15.95
2022-11-26T14:43:20.081Z,14.80
2022-11-26T14:45:48.652Z,10.63
2022-11-26T14:48:22.994Z,13.63
2022-11-26T14:50:49.972Z,11.35
2022-11-26T14:53:18.148Z,12.63
2022-11-26T14:55:44.830Z,13.48
2022-11-26T14:58:16.856Z,12.90
2022-11-26T15:00:43.907Z,12.60
2022-11-26T15:03:26.023Z,12.10
2022-11-26T15:05:52.673Z,18.83
2022-11-26T15:08:20.261Z,9.15
2022-11-26T15:10:51.083Z,12.82
2022-11-26T15:13:25.082Z,10.45
2022-11-26T15:15:54.447Z,9.45
2022-11-26T15:18:25.833Z,11.50
2022-11-26T15:20:52.703Z,16.17
2022-11-26T15:23:21.288Z,13.23
2022-11-26T15:25:50.853Z,16.52
2022-11-26T15:28:19.498Z,13.38
2022-11-26T15:31:02.386Z,15.52
2022-11-26T15:35:57.529Z,9.82
2022-11-26T15:38:26.076Z,14.60
2022-11-26T15:41:15.021Z,20.92
2022-11-26T15:43:47.389Z,15.63
2022-11-26T15:46:21.360Z,25.05
2022-11-26T15:48:53.720Z,16.00
2022-11-26T15:51:35.901Z,14.27
2022-11-26T15:54:04.331Z,12.43
2022-11-26T15:56:34.285Z,17.52
2022-11-26T15:59:02.350Z,16.40
2022-11-26T16:01:31.422Z,19.17
2022-11-26T16:04:00.098Z,15.68
2022-11-26T16:06:35.569Z,19.17
2022-11-26T16:09:07.487Z,13.82
2022-11-26T16:11:36.692Z,16.58
2022-11-26T16:14:27.203Z,15.02
2022-11-26T16:16:53.908Z,18.48
2022-11-26T16:19:22.549Z,16.92
2022-11-26T16:21:51.331Z,17.67
2022-11-26T16:24:40.071Z,9.90
2022-11-26T16:30:02.106Z,17.63
2022-11-26T16:32:29.108Z,14.40
2022-11-26T16:34:55.825Z,20.98
2022-11-26T16:37:31.592Z,17.52
2022-11-26T16:40:03.636Z,16.23
2022-11-26T16:42:33.322Z,14.05
2022-11-26T16:45:03.869Z,17.00
2022-11-26T16:47:37.499Z,24.25
2022-11-26T16:50:04.610Z,16.33
2022-11-26T16:52:32.267Z,22.15
2022-11-26T16:55:00.402Z,19.40
2022-11-26T16:57:27.541Z,17.38
2022-11-26T16:59:56.088Z,17.33
2022-11-26T17:02:23.337Z,19.30
2022-11-26T17:04:50.222Z,19.65
2022-11-26T17:07:21.528Z,18.20
2022-11-26T17:09:48.368Z,19.85
2022-11-26T17:12:16.371Z,20.25
2022-11-26T17:14:43.440Z,17.92
2022-11-26T17:17:13.433Z,22.23
2022-11-26T17:19:41.778Z,19.55
2022-11-26T17:22:09.195Z,21.52
2022-11-26T17:24:36.896Z,21.60
2022-11-26T17:27:06.678Z,18.00
2022-11-26T17:29:36.040Z,17.10
2022-11-26T17:32:05.021Z,16.15
2022-11-26T17:34:31.641Z,20.95
2022-11-26T17:36:59.559Z,19.25
2022-11-26T17:39:27.715Z,26.65
2022-11-26T17:41:54.645Z,21.23
2022-11-26T17:44:21.707Z,18.33
2022-11-26T17:47:15.321Z,25.00
2022-11-26T17:49:35.115Z,19.63
2022-11-26T17:52:01.718Z,18.02
2022-11-26T17:54:28.315Z,20.65
2022-11-26T17:56:54.932Z,22.45
2022-11-26T17:59:23.872Z,22.65
2022-11-26T18:01:50.840Z,20.05
2022-11-26T18:04:17.606Z,18.15
2022-11-26T18:09:41.781Z,23.38
2022-11-26T18:12:14.195Z,21.92
2022-11-26T18:14:41.355Z,16.27
2022-11-26T18:17:09.568Z,20.92
2022-11-26T18:19:40.721Z,23.90
2022-11-26T18:22:11.373Z,20.20
2022-11-26T18:24:37.955Z,18.08
2022-11-26T18:27:04.607Z,27.75
2022-11-26T18:29:31.449Z,23.83
2022-11-26T18:31:58.250Z,30.77
2022-11-26T18:34:24.982Z,22.98
2022-11-26T18:36:53.864Z,23.45
2022-11-26T18:39:20.903Z,24.00
2022-11-26T18:41:47.521Z,21.13
2022-11-26T18:44:14.187Z,21.73
2022-11-26T18:46:40.780Z,19.98
2022-11-26T18:49:07.410Z,19.67
2022-11-26T18:51:34.055Z,18.13
2022-11-26T18:54:01.723Z,21.73
2022-11-26T18:56:28.306Z,23.63
2022-11-26T18:58:55.598Z,22.55
2022-11-26T19:01:24.140Z,21.20
2022-11-26T19:03:50.841Z,18.55
2022-11-26T19:06:19.706Z,24.08
2022-11-26T19:08:46.666Z,21.20
2022-11-26T19:11:16.854Z,22.15
2022-11-26T19:13:43.518Z,25.40
2022-11-26T19:16:16.594Z,31.02
2022-11-26T19:18:43.712Z,28.58
2022-11-26T19:21:22.801Z,47.08
2022-11-26T19:23:49.790Z,25.50
2022-11-26T19:26:16.793Z,23.67
2022-11-26T19:28:43.423Z,26.00
2022-11-26T19:31:12.959Z,22.42
2022-11-26T19:33:39.789Z,27.55
2022-11-26T19:36:08.658Z,22.10
2022-11-26T19:38:35.480Z,23.52
2022-11-26T19:41:02.278Z,22.05
2022-11-26T19:43:30.099Z,18.83
2022-11-26T19:46:13.443Z,19.80
2022-11-26T19:48:42.639Z,19.65
2022-11-26T19:51:09.933Z,22.75
2022-11-26T19:53:36.868Z,21.98
2022-11-26T19:56:08.526Z,23.83
2022-11-26T19:58:36.139Z,18.83
2022-11-26T20:01:09.317Z,22.50
2022-11-26T20:03:37.735Z,25.02
2022-11-26T20:06:06.022Z,23.83
2022-11-26T20:08:33.649Z,22.58
2022-11-26T20:11:01.700Z,26.48
2022-11-26T20:13:28.342Z,23.02
2022-11-26T20:15:55.099Z,22.10
2022-11-26T20:18:21.712Z,27.42
2022-11-26T20:21:05.403Z,24.52
2022-11-26T20:23:32.052Z,23.48
2022-11-26T20:25:58.623Z,21.77
2022-11-26T20:28:25.215Z,26.90
2022-11-26T20:30:51.936Z,31.63
2022-11-26T20:33:18.921Z,25.02
2022-11-26T20:35:45.650Z,26.45
2022-11-26T20:38:12.462Z,24.83
2022-11-26T20:40:41.023Z,26.70
2022-11-26T20:43:08.120Z,24.75
2022-11-26T20:45:34.997Z,18.52
2022-11-26T20:48:01.625Z,17.27
2022-11-26T20:50:28.307Z,19.13
2022-11-26T20:52:55.080Z,22.30
2022-11-26T20:55:22.054Z,26.83
2022-11-26T20:57:49.220Z,24.48
2022-11-26T21:00:17.046Z,22.98
2022-11-26T21:02:44.714Z,25.10
2022-11-26T21:05:12.914Z,23.77
2022-11-26T21:07:39.834Z,27.17
2022-11-26T21:10:07.990Z,18.23
2022-11-26T21:12:34.694Z,17.20
2022-11-26T21:15:01.304Z,22.25
2022-11-26T21:17:31.153Z,21.05
2022-11-26T21:19:57.782Z,21.02
2022-11-26T21:22:24.628Z,20.65
2022-11-26T21:24:51.323Z,17.98
2022-11-26T21:27:17.929Z,19.15
2022-11-26T21:29:46.085Z,18.55
2022-11-26T21:32:12.782Z,18.17
2022-11-26T21:34:39.748Z,19.08
2022-11-26T21:37:06.377Z,18.17
2022-11-26T21:39:36.505Z,22.25
2022-11-26T21:42:03.297Z,22.85
2022-11-26T21:44:30.069Z,22.98
2022-11-26T21:46:56.964Z,20.13
2022-11-26T21:49:23.682Z,19.98
2022-11-26T21:51:50.372Z,19.88
2022-11-26T21:54:17.103Z,19.77
2022-11-26T21:56:43.815Z,17.23
2022-11-26T21:59:10.659Z,20.65
2022-11-26T22:01:38.135Z,19.13
2022-11-26T22:04:08.309Z,16.05
2022-11-26T22:06:35.041Z,16.95
2022-11-26T22:09:01.938Z,19.40
2022-11-26T22:11:30.578Z,18.65
2022-11-26T22:13:57.215Z,17.58
2022-11-26T22:16:25.884Z,16.90
2022-11-26T22:18:52.692Z,18.88
2022-11-26T22:21:21.457Z,17.08
2022-11-26T22:23:48.516Z,17.15
2022-11-26T22:26:15.143Z,16.83
2022-11-26T22:28:42.322Z,19.63
2022-11-26T22:31:12.665Z,17.98
2022-11-26T22:33:39.471Z,21.55
2022-11-26T22:36:06.408Z,19.55
2022-11-26T22:38:35.136Z,19.08
2022-11-26T22:41:03.057Z,20.33
2022-11-26T22:43:30.014Z,18.15
2022-11-26T22:45:56.763Z,17.77
2022-11-26T22:48:23.530Z,15.45
2022-11-26T22:50:51.957Z,17.42
2022-11-26T22:53:18.617Z,16.08
2022-11-26T22:55:53.801Z,18.65
2022-11-26T22:58:20.492Z,19.48
2022-11-26T23:00:52.490Z,14.75
2022-11-26T23:03:19.657Z,14.65
2022-11-26T23:05:46.768Z,13.98
2022-11-26T23:08:13.624Z,20.65
2022-11-26T23:10:40.468Z,12.88
2022-11-26T23:13:07.582Z,13.48
2022-11-26T23:15:34.246Z,14.30
2022-11-26T23:18:00.865Z,14.35
2022-11-26T23:20:27.491Z,14.02
2022-11-26T23:22:54.200Z,14.43
2022-11-26T23:25:21.351Z,12.05
2022-11-26T23:27:48.528Z,9.98
2022-11-26T23:30:15.911Z,10.95
2022-11-26T23:32:42.942Z,11.82
2022-11-26T23:35:09.923Z,12.65
2022-11-26T23:37:37.648Z,10.68
2022-11-26T23:40:05.366Z,13.48
2022-11-26T23:42:32.012Z,14.50
2022-11-26T23:44:58.640Z,10.02
2022-11-26T23:47:25.272Z,11.20
2022-11-26T23:49:51.972Z,13.82
2022-11-26T23:52:18.721Z,10.50
2022-11-26T23:54:45.409Z,11.00
2022-11-26T23:57:15.141Z,7.88
2022-11-26T23:59:42.260Z,10.07
